Alaskan Explorer — WDB9918 — position and weather

sailwx.info

Track history (hours):
 
Tides and Currents Weather Stations Pressure Air Temp Water Temp Dewpoint Dewpoint Depression Visibility Wind Speed Wind Dir Waves Ship Positions

Alaskan Explorer

Owner: ALASKA TANKER COMPANY, LLC, Beaverton, OR. More information available from US FCC via Universal Licensing System and Coast Guard Vessel Documentation Center.

Last reported at 2017-Dec-14 15:00 UTC. Time now 2017-Dec-16 09:22 UTC.
Position N 56°12' W 143°06'.

Type: Tanker. MMSI: 303294000.

Wind from 250 at 37 knots

Barometer 998.2 mb
Air temperature 6.1 ° C
Visibility: greater than 5.4 NM
Dewpoint 6.1 ° C
Water temperature 8.3 ° C

Date/timePositionNaut miles runAvg speedWind from/ knotsBaromVisibWave heightAir tempDewpointWater temp
2017-Dec-14 15:00N 56°12' W 143°06'   250 / 37998.2 5.4 6.1 6.1 8.3
2017-Dec-11 10:00N 57°48' W 145°06'17313.3 200 / 44988.8 6.7 4.4 7.8
2017-Dec-10 21:00N 55°24' W 142°12'4113.8 140 / 52992.9 2.2 6.7 4.4 8.9
2017-Dec-10 18:00N 54°48' W 141°36'34214.3 140 / 37997.5 6.7 4.4 8.9
2017-Dec-09 18:00N 51°18' W 134°06'10613.2 180 / 241006.5 2.2 10.0 7.911.1
2017-Dec-09 10:00N 50°24' W 131°42'11114.9 140 / 371011.3 5.4 11.1 5.511.1
2017-Dec-09 02:31N 49°25' W 129°15'514.6
2017-Dec-09 02:12N 49°23' W 129°09'314.8
2017-Dec-09 02:00N 49°21' W 129°06'714.4
2017-Dec-09 01:30N 49°17' W 128°56'714.3
2017-Dec-09 01:00N 49°13' W 128°47'714.6
2017-Dec-09 00:31N 49°10' W 128°37'714.6
2017-Dec-09 00:00N 49°06' W 128°28'814.8
2017-Dec-08 23:29N 49°02' W 128°18'715.0
2017-Dec-08 23:00N 48°58' W 128°09'815.1
2017-Dec-08 22:30N 48°54' W 127°59'815.1
2017-Dec-08 22:00N 48°50' W 127°49'815.1
2017-Dec-08 21:30N 48°46' W 127°39'815.0
2017-Dec-08 21:00N 48°42' W 127°30'815.1
2017-Dec-08 20:30N 48°38' W 127°20'715.0
2017-Dec-08 20:00N 48°34' W 127°10'714.3
2017-Dec-08 19:30N 48°31' W 127°01'714.8
2017-Dec-08 19:00N 48°31' W 126°49'815.1
2017-Dec-08 18:30N 48°31' W 126°38'714.9
2017-Dec-08 18:00N 48°31' W 126°27'714.6
2017-Dec-08 17:31N 48°31' W 126°16'714.9
2017-Dec-08 17:00N 48°31' W 126°05'815.1
2017-Dec-08 16:30N 48°32' W 125°53'714.9
2017-Dec-08 16:00N 48°32' W 125°42'714.9
2017-Dec-08 15:30N 48°31' W 125°31'714.9
2017-Dec-08 15:00N 48°31' W 125°20'815.0
2017-Dec-08 14:30N 48°31' W 125°08'815.3
2017-Dec-08 14:00N 48°30' W 124°57'815.0
2017-Dec-08 13:30N 48°31' W 124°45'714.3
2017-Dec-08 13:00N 48°28' W 124°35'714.4
2017-Dec-08 12:30N 48°25' W 124°25'714.4
2017-Dec-08 12:00N 48°23' W 124°15'714.5
2017-Dec-08 11:30N 48°20' W 124°05'815.0
2017-Dec-08 11:00N 48°17' W 123°54'815.4
2017-Dec-08 10:30N 48°16' W 123°43'815.8
2017-Dec-08 10:00N 48°15' W 123°31'713.1
2017-Dec-08 09:30N 48°10' W 123°25'3 5.9
2017-Dec-08 09:00N 48°10' W 123°20'816.5
2017-Dec-08 08:30N 48°15' W 123°11'816.4
2017-Dec-08 08:00N 48°20' W 123°00'816.1
2017-Dec-08 07:30N 48°24' W 122°50'816.5
2017-Dec-08 07:00N 48°31' W 122°45'917.4
2017-Dec-08 06:30N 48°40' W 122°43'816.1
2017-Dec-08 06:00N 48°48' W 122°46'4 7.6
2017-Dec-08 05:30N 48°52' W 122°45'0 0.0
2017-Dec-08 05:00N 48°52' W 122°45'0 0.0
2017-Dec-08 04:30N 48°52' W 122°45'0 0.0
2017-Dec-07 03:36N 48°52' W 122°45'0 0.1
2017-Dec-07 03:30N 48°52' W 122°45'0 0.9
2017-Dec-07 03:00N 48°51' W 122°45'3 4.7
2017-Dec-07 02:26N 48°49' W 122°45'4 9.1
2017-Dec-07 02:00N 48°45' W 122°45'5 9.9
2017-Dec-07 01:30N 48°40' W 122°42'510.5
2017-Dec-07 01:00N 48°35' W 122°45'510.6
2017-Dec-07 00:30N 48°30' W 122°44'5 9.4
2017-Dec-07 00:01N 48°26' W 122°47'612.0
2017-Dec-06 23:30N 48°22' W 122°53'714.5
2017-Dec-06 23:00N 48°18' W 123°03'714.5
2017-Dec-06 22:30N 48°14' W 123°12'713.9
2017-Dec-06 22:00N 48°10' W 123°20'5 9.8
2017-Dec-06 21:30N 48°11' W 123°27'612.8
2017-Dec-06 21:00N 48°13' W 123°36'416 8.2
2017-Dec-04 18:00N 41°30' W 126°00'   340 / 301028.410.8 13.3 3.014.4
Track history (hours):
 
Tides and Currents Weather Stations Pressure Air Temp Water Temp Dewpoint Dewpoint Depression Visibility Wind Speed Wind Dir Waves Ship Positions

Alaskan Explorer

Owner: ALASKA TANKER COMPANY, LLC, Beaverton, OR. More information available from US FCC via Universal Licensing System and Coast Guard Vessel Documentation Center.

Last reported at 2017-Dec-14 15:00 UTC. Time now 2017-Dec-16 09:22 UTC.
Position N 56°12' W 143°06'.

Type: Tanker. MMSI: 303294000.

Wind from 250 at 37 knots

Barometer 998.2 mb
Air temperature 6.1 ° C
Visibility: greater than 5.4 NM
Dewpoint 6.1 ° C
Water temperature 8.3 ° C

Date/timePositionNaut miles runAvg speedWind from/ knotsBaromVisibWave heightAir tempDewpointWater temp
2017-Dec-14 15:00N 56°12' W 143°06'   250 / 37998.2 5.4 6.1 6.1 8.3
2017-Dec-11 10:00N 57°48' W 145°06'17313.3 200 / 44988.8 6.7 4.4 7.8
2017-Dec-10 21:00N 55°24' W 142°12'4113.8 140 / 52992.9 2.2 6.7 4.4 8.9
2017-Dec-10 18:00N 54°48' W 141°36'34214.3 140 / 37997.5 6.7 4.4 8.9
2017-Dec-09 18:00N 51°18' W 134°06'10613.2 180 / 241006.5 2.2 10.0 7.911.1
2017-Dec-09 10:00N 50°24' W 131°42'11114.9 140 / 371011.3 5.4 11.1 5.511.1
2017-Dec-09 02:31N 49°25' W 129°15'514.6
2017-Dec-09 02:12N 49°23' W 129°09'314.8
2017-Dec-09 02:00N 49°21' W 129°06'714.4
2017-Dec-09 01:30N 49°17' W 128°56'714.3
2017-Dec-09 01:00N 49°13' W 128°47'714.6
2017-Dec-09 00:31N 49°10' W 128°37'714.6
2017-Dec-09 00:00N 49°06' W 128°28'814.8
2017-Dec-08 23:29N 49°02' W 128°18'715.0
2017-Dec-08 23:00N 48°58' W 128°09'815.1
2017-Dec-08 22:30N 48°54' W 127°59'815.1
2017-Dec-08 22:00N 48°50' W 127°49'815.1
2017-Dec-08 21:30N 48°46' W 127°39'815.0
2017-Dec-08 21:00N 48°42' W 127°30'815.1
2017-Dec-08 20:30N 48°38' W 127°20'715.0
2017-Dec-08 20:00N 48°34' W 127°10'714.3
2017-Dec-08 19:30N 48°31' W 127°01'714.8
2017-Dec-08 19:00N 48°31' W 126°49'815.1
2017-Dec-08 18:30N 48°31' W 126°38'714.9
2017-Dec-08 18:00N 48°31' W 126°27'714.6
2017-Dec-08 17:31N 48°31' W 126°16'714.9
2017-Dec-08 17:00N 48°31' W 126°05'815.1
2017-Dec-08 16:30N 48°32' W 125°53'714.9
2017-Dec-08 16:00N 48°32' W 125°42'714.9
2017-Dec-08 15:30N 48°31' W 125°31'714.9
2017-Dec-08 15:00N 48°31' W 125°20'815.0
2017-Dec-08 14:30N 48°31' W 125°08'815.3
2017-Dec-08 14:00N 48°30' W 124°57'815.0
2017-Dec-08 13:30N 48°31' W 124°45'714.3
2017-Dec-08 13:00N 48°28' W 124°35'714.4
2017-Dec-08 12:30N 48°25' W 124°25'714.4
2017-Dec-08 12:00N 48°23' W 124°15'714.5
2017-Dec-08 11:30N 48°20' W 124°05'815.0
2017-Dec-08 11:00N 48°17' W 123°54'815.4
2017-Dec-08 10:30N 48°16' W 123°43'815.8
2017-Dec-08 10:00N 48°15' W 123°31'713.1
2017-Dec-08 09:30N 48°10' W 123°25'3 5.9
2017-Dec-08 09:00N 48°10' W 123°20'816.5
2017-Dec-08 08:30N 48°15' W 123°11'816.4
2017-Dec-08 08:00N 48°20' W 123°00'816.1
2017-Dec-08 07:30N 48°24' W 122°50'816.5
2017-Dec-08 07:00N 48°31' W 122°45'917.4
2017-Dec-08 06:30N 48°40' W 122°43'816.1
2017-Dec-08 06:00N 48°48' W 122°46'4 7.6
2017-Dec-08 05:30N 48°52' W 122°45'0 0.0
2017-Dec-08 05:00N 48°52' W 122°45'0 0.0
2017-Dec-08 04:30N 48°52' W 122°45'0 0.0
2017-Dec-07 03:36N 48°52' W 122°45'0 0.1
2017-Dec-07 03:30N 48°52' W 122°45'0 0.9
2017-Dec-07 03:00N 48°51' W 122°45'3 4.7
2017-Dec-07 02:26N 48°49' W 122°45'4 9.1
2017-Dec-07 02:00N 48°45' W 122°45'5 9.9
2017-Dec-07 01:30N 48°40' W 122°42'510.5
2017-Dec-07 01:00N 48°35' W 122°45'510.6
2017-Dec-07 00:30N 48°30' W 122°44'5 9.4
2017-Dec-07 00:01N 48°26' W 122°47'612.0
2017-Dec-06 23:30N 48°22' W 122°53'714.5
2017-Dec-06 23:00N 48°18' W 123°03'714.5
2017-Dec-06 22:30N 48°14' W 123°12'713.9
2017-Dec-06 22:00N 48°10' W 123°20'5 9.8
2017-Dec-06 21:30N 48°11' W 123°27'612.8
2017-Dec-06 21:00N 48°13' W 123°36'416 8.2
2017-Dec-04 18:00N 41°30' W 126°00'   340 / 301028.410.8 13.3 3.014.4

Dump ship's entire track history